createdAt,value
2022-12-29T00:00:25.337Z,6.60
2022-12-29T00:03:15.233Z,6.60
2022-12-29T00:05:44.753Z,6.60
2022-12-29T00:08:14.499Z,6.60
2022-12-29T00:10:45.364Z,6.60
2022-12-29T00:13:32.456Z,6.60
2022-12-29T00:16:01.787Z,6.60
2022-12-29T00:18:31.452Z,6.50
2022-12-29T00:21:18.066Z,6.50
2022-12-29T00:24:05.600Z,6.50
2022-12-29T00:26:53.419Z,6.50
2022-12-29T00:29:40.303Z,6.40
2022-12-29T00:32:29.355Z,6.40
2022-12-29T00:35:19.050Z,6.40
2022-12-29T00:38:08.234Z,6.40
2022-12-29T00:40:55.322Z,6.40
2022-12-29T00:43:43.417Z,6.40
2022-12-29T00:46:19.281Z,6.40
2022-12-29T00:49:06.821Z,6.30
2022-12-29T00:51:36.951Z,6.30
2022-12-29T00:54:06.287Z,6.40
2022-12-29T00:56:37.109Z,6.40
2022-12-29T00:59:09.676Z,6.40
2022-12-29T01:01:40.567Z,6.40
2022-12-29T01:04:10.998Z,6.40
2022-12-29T01:06:42.005Z,6.40
2022-12-29T01:09:43.837Z,6.40
2022-12-29T01:12:14.260Z,6.30
2022-12-29T01:14:45.242Z,6.30
2022-12-29T01:17:15.020Z,6.30
2022-12-29T01:19:44.459Z,6.30
2022-12-29T01:22:14.101Z,6.20
2022-12-29T01:24:43.548Z,6.20
2022-12-29T01:27:13.328Z,6.20
2022-12-29T01:29:44.087Z,6.30
2022-12-29T01:32:13.742Z,6.20
2022-12-29T01:34:43.337Z,6.30
2022-12-29T01:37:13.644Z,6.20
2022-12-29T01:39:43.388Z,6.20
2022-12-29T01:42:19.496Z,6.20
2022-12-29T01:44:58.982Z,6.30
2022-12-29T01:47:40.202Z,6.30
2022-12-29T01:50:13.805Z,6.20
2022-12-29T01:52:53.850Z,6.20
2022-12-29T01:55:23.672Z,6.20
2022-12-29T01:57:57.598Z,6.20
2022-12-29T02:00:30.212Z,6.20
2022-12-29T02:03:00.151Z,6.10
2022-12-29T02:05:37.164Z,6.20
2022-12-29T02:08:07.875Z,6.20
2022-12-29T02:10:38.935Z,6.20
2022-12-29T02:13:08.875Z,6.20
2022-12-29T02:15:56.649Z,6.10
2022-12-29T02:18:38.619Z,6.20
2022-12-29T02:21:48.555Z,6.20
2022-12-29T02:24:58.690Z,6.10
2022-12-29T02:27:49.892Z,6.10
2022-12-29T02:30:43.019Z,6.10
2022-12-29T02:33:23.571Z,6.10
2022-12-29T02:36:02.743Z,6.10
2022-12-29T02:38:50.512Z,6.10
2022-12-29T02:41:24.599Z,6.10
2022-12-29T02:44:01.392Z,6.10
2022-12-29T02:46:38.453Z,6.10
2022-12-29T02:49:15.348Z,6.10
2022-12-29T02:51:53.524Z,6.10
2022-12-29T02:54:40.511Z,6.10
2022-12-29T02:57:18.370Z,6.10
2022-12-29T02:59:49.667Z,6.00
2022-12-29T03:02:44.441Z,6.10
2022-12-29T03:05:36.560Z,6.10
2022-12-29T03:08:14.569Z,6.00
2022-12-29T03:10:51.560Z,6.00
2022-12-29T03:13:44.675Z,6.00
2022-12-29T03:16:24.107Z,6.00
2022-12-29T03:19:02.669Z,6.00
2022-12-29T03:21:54.165Z,6.00
2022-12-29T03:24:27.977Z,6.00
2022-12-29T03:26:59.934Z,5.90
2022-12-29T03:29:33.833Z,6.00
2022-12-29T03:32:05.975Z,6.00
2022-12-29T03:34:39.497Z,5.90
2022-12-29T03:37:15.600Z,6.00
2022-12-29T03:39:45.545Z,6.00
2022-12-29T03:42:18.852Z,6.00
2022-12-29T03:44:49.215Z,6.00
2022-12-29T03:47:18.859Z,6.00
2022-12-29T03:49:51.604Z,6.10
2022-12-29T03:52:21.383Z,6.00
2022-12-29T03:54:51.117Z,6.00
2022-12-29T03:57:20.583Z,6.00
2022-12-29T03:59:50.259Z,6.00
2022-12-29T04:02:19.770Z,5.90
2022-12-29T04:04:51.482Z,6.00
2022-12-29T04:07:20.867Z,6.00
2022-12-29T04:09:50.527Z,6.00
2022-12-29T04:12:19.934Z,6.00
2022-12-29T04:14:49.714Z,6.00
2022-12-29T04:17:19.111Z,6.00
2022-12-29T04:19:50.684Z,6.00
2022-12-29T04:22:19.659Z,6.00
2022-12-29T04:24:49.310Z,5.90
2022-12-29T04:27:18.575Z,5.90
2022-12-29T04:29:48.470Z,6.00
2022-12-29T04:32:17.775Z,6.00
2022-12-29T04:34:49.999Z,6.00
2022-12-29T04:37:19.637Z,6.00
2022-12-29T04:39:49.694Z,6.00
2022-12-29T04:42:18.986Z,6.00
2022-12-29T04:44:48.691Z,6.00
2022-12-29T04:47:18.110Z,6.00
2022-12-29T04:49:49.982Z,6.00
2022-12-29T04:52:19.160Z,6.10
2022-12-29T04:54:49.309Z,6.10
2022-12-29T04:57:18.640Z,6.10
2022-12-29T04:59:48.305Z,6.10
2022-12-29T05:02:17.858Z,6.10
2022-12-29T05:04:50.061Z,6.10
2022-12-29T05:07:19.383Z,6.10
2022-12-29T05:09:49.619Z,6.10
2022-12-29T05:12:18.891Z,6.10
2022-12-29T05:14:48.649Z,6.10
2022-12-29T05:17:18.021Z,6.20
2022-12-29T05:19:50.002Z,6.20
2022-12-29T05:22:19.462Z,6.30
2022-12-29T05:24:49.153Z,6.30
2022-12-29T05:27:18.450Z,6.30
2022-12-29T05:29:48.789Z,6.30
2022-12-29T05:32:18.080Z,6.30
2022-12-29T05:34:50.145Z,6.30
2022-12-29T05:37:19.447Z,6.30
2022-12-29T05:39:49.131Z,6.30
2022-12-29T05:42:18.410Z,6.30
2022-12-29T05:44:48.072Z,6.30
2022-12-29T05:47:17.481Z,6.30
2022-12-29T05:49:47.174Z,6.30
2022-12-29T05:52:18.058Z,6.30
2022-12-29T05:54:48.259Z,6.30
2022-12-29T05:57:17.598Z,6.30
2022-12-29T05:59:47.269Z,6.30
2022-12-29T06:02:16.958Z,6.30
2022-12-29T06:04:47.125Z,6.30
2022-12-29T06:07:17.928Z,6.30
2022-12-29T06:09:48.085Z,6.30
2022-12-29T06:12:17.466Z,6.30
2022-12-29T06:14:47.287Z,6.30
2022-12-29T06:17:16.609Z,6.40
2022-12-29T06:19:47.080Z,6.30
2022-12-29T06:22:17.974Z,6.30
2022-12-29T06:24:47.626Z,6.40
2022-12-29T06:27:17.132Z,6.40
2022-12-29T06:29:47.513Z,6.40
2022-12-29T06:32:16.912Z,6.40
2022-12-29T06:34:46.877Z,6.40
2022-12-29T06:37:17.781Z,6.40
2022-12-29T06:39:47.590Z,6.40
2022-12-29T06:42:17.002Z,6.40
2022-12-29T06:44:47.379Z,6.40
2022-12-29T06:47:16.828Z,6.50
2022-12-29T06:49:46.616Z,6.50
2022-12-29T06:52:17.420Z,6.50
2022-12-29T06:54:47.347Z,6.50
2022-12-29T06:57:16.698Z,6.50
2022-12-29T06:59:46.821Z,6.50
2022-12-29T07:02:19.497Z,6.50
2022-12-29T07:04:49.389Z,6.50
2022-12-29T07:07:20.116Z,6.50
2022-12-29T07:09:49.806Z,6.50
2022-12-29T07:12:19.365Z,6.50
2022-12-29T07:14:49.123Z,6.50
2022-12-29T07:17:18.403Z,6.50
2022-12-29T07:19:48.127Z,6.60
2022-12-29T07:22:19.023Z,6.50
2022-12-29T07:24:48.735Z,6.60
2022-12-29T07:27:18.045Z,6.60
2022-12-29T07:29:47.852Z,6.60
2022-12-29T07:32:17.437Z,6.60
2022-12-29T07:34:48.700Z,6.60
2022-12-29T07:37:19.790Z,6.70
2022-12-29T07:39:49.487Z,6.70
2022-12-29T07:42:18.988Z,6.70
2022-12-29T07:44:49.112Z,6.80
2022-12-29T07:47:18.435Z,6.80
2022-12-29T07:49:48.567Z,6.80
2022-12-29T07:52:19.317Z,6.80
2022-12-29T07:54:49.095Z,6.80
2022-12-29T07:57:18.501Z,6.90
2022-12-29T07:59:48.185Z,6.90
2022-12-29T08:02:17.779Z,6.90
2022-12-29T08:04:47.773Z,6.90
2022-12-29T08:07:17.056Z,6.90
2022-12-29T08:09:48.190Z,7.00
2022-12-29T08:12:17.592Z,7.00
2022-12-29T08:14:47.240Z,7.00
2022-12-29T08:17:16.654Z,7.00
2022-12-29T08:19:46.332Z,7.10
2022-12-29T08:22:17.315Z,7.10
2022-12-29T08:24:48.450Z,7.10
2022-12-29T08:27:20.679Z,7.10
2022-12-29T08:29:51.467Z,7.10
2022-12-29T08:32:21.039Z,7.10
2022-12-29T08:34:50.792Z,7.10
2022-12-29T08:37:20.247Z,7.10
2022-12-29T08:39:51.359Z,7.10
2022-12-29T08:42:20.645Z,7.00
2022-12-29T08:44:50.518Z,7.00
2022-12-29T08:47:19.859Z,7.10
2022-12-29T08:49:49.523Z,7.00
2022-12-29T08:52:18.813Z,7.10
2022-12-29T08:54:48.556Z,7.10
2022-12-29T08:57:19.468Z,7.10
2022-12-29T08:59:49.251Z,7.00
2022-12-29T09:02:24.172Z,7.10
2022-12-29T09:04:54.633Z,7.10
2022-12-29T09:07:24.209Z,7.10
2022-12-29T09:09:54.530Z,7.10
2022-12-29T09:12:25.311Z,7.20
2022-12-29T09:14:55.244Z,7.20
2022-12-29T09:17:41.926Z,7.30
2022-12-29T09:20:12.179Z,7.30
2022-12-29T09:22:41.708Z,7.30
2022-12-29T09:25:12.410Z,7.40
2022-12-29T09:27:43.936Z,7.40
2022-12-29T09:30:15.944Z,7.40
2022-12-29T09:32:47.004Z,7.50
2022-12-29T09:35:19.281Z,7.50
2022-12-29T09:37:48.580Z,7.50
2022-12-29T09:40:28.435Z,7.60
2022-12-29T09:43:24.628Z,7.60
2022-12-29T09:46:02.258Z,7.70
2022-12-29T09:48:35.388Z,7.70
2022-12-29T09:51:11.284Z,7.70
2022-12-29T09:53:45.591Z,7.70
2022-12-29T09:56:19.815Z,7.70
2022-12-29T09:58:55.467Z,7.80
2022-12-29T10:01:31.681Z,7.80
2022-12-29T10:04:04.331Z,7.80
2022-12-29T10:07:03.571Z,7.90
2022-12-29T10:09:37.187Z,7.90
2022-12-29T10:12:18.378Z,8.00
2022-12-29T10:15:05.068Z,8.10
2022-12-29T10:17:44.368Z,8.00
2022-12-29T10:20:31.387Z,8.10
2022-12-29T10:23:13.834Z,8.00
2022-12-29T10:25:45.432Z,8.00
2022-12-29T10:28:22.371Z,8.10
2022-12-29T10:30:55.380Z,8.20
2022-12-29T10:33:30.737Z,8.10
2022-12-29T10:36:00.657Z,8.20
2022-12-29T10:38:38.257Z,8.20
2022-12-29T10:41:16.380Z,8.30
2022-12-29T10:43:49.713Z,8.40
2022-12-29T10:46:24.191Z,8.40
2022-12-29T10:48:59.888Z,8.40
2022-12-29T10:51:34.689Z,8.50
2022-12-29T10:54:09.162Z,8.50
2022-12-29T10:56:45.586Z,8.50
2022-12-29T10:59:22.049Z,8.50
2022-12-29T11:02:22.934Z,8.50
2022-12-29T11:05:00.064Z,8.60
2022-12-29T11:07:29.495Z,8.60
2022-12-29T11:10:19.551Z,8.60
2022-12-29T11:12:58.966Z,8.60
2022-12-29T11:15:28.899Z,8.60
2022-12-29T11:18:01.272Z,8.60
2022-12-29T11:20:34.892Z,8.60
2022-12-29T11:23:05.949Z,8.60
2022-12-29T11:25:35.805Z,8.70
2022-12-29T11:28:17.918Z,8.80
2022-12-29T11:30:58.297Z,8.80
2022-12-29T11:33:31.621Z,8.80
2022-12-29T11:36:04.225Z,8.70
2022-12-29T11:38:39.224Z,8.60
2022-12-29T11:41:13.627Z,8.60
2022-12-29T11:43:46.362Z,8.50
2022-12-29T11:46:20.367Z,8.40
2022-12-29T11:48:51.820Z,8.40
2022-12-29T11:51:26.093Z,8.40
2022-12-29T11:53:58.781Z,8.40
2022-12-29T11:56:40.813Z,8.30
2022-12-29T11:59:40.044Z,8.30
2022-12-29T12:02:42.915Z,8.30
2022-12-29T12:05:28.320Z,8.40
2022-12-29T12:08:03.548Z,8.40
2022-12-29T12:10:39.862Z,8.50
2022-12-29T12:13:21.172Z,8.50
2022-12-29T12:15:56.384Z,8.50
2022-12-29T12:18:37.151Z,8.50
2022-12-29T12:21:21.154Z,8.50
2022-12-29T12:24:16.457Z,8.50
2022-12-29T12:27:01.121Z,8.50
2022-12-29T12:29:39.678Z,8.50
2022-12-29T12:32:17.763Z,8.50
2022-12-29T12:34:49.602Z,8.50
2022-12-29T12:37:55.470Z,8.50
2022-12-29T12:40:57.226Z,8.60
2022-12-29T12:43:42.718Z,8.60
2022-12-29T12:46:41.824Z,8.60
2022-12-29T12:49:36.099Z,8.60
2022-12-29T12:52:15.612Z,8.70
2022-12-29T12:55:05.708Z,8.70
2022-12-29T12:57:49.088Z,8.70
2022-12-29T13:00:21.008Z,8.70
2022-12-29T13:03:02.938Z,8.70
2022-12-29T13:05:53.183Z,8.80
2022-12-29T13:09:06.045Z,8.70
2022-12-29T13:11:52.739Z,8.70
2022-12-29T13:14:36.889Z,8.70
2022-12-29T13:17:16.055Z,8.70
2022-12-29T13:19:53.972Z,8.70
2022-12-29T13:22:27.919Z,8.80
2022-12-29T13:25:11.475Z,8.80
2022-12-29T13:27:49.665Z,8.80
2022-12-29T13:30:22.670Z,8.90
2022-12-29T13:33:00.654Z,8.80
2022-12-29T13:35:46.662Z,8.80
2022-12-29T13:38:21.494Z,8.80
2022-12-29T13:40:55.761Z,8.80
2022-12-29T13:43:27.718Z,8.80
2022-12-29T13:46:05.102Z,8.70
2022-12-29T13:48:42.476Z,8.70
2022-12-29T13:51:14.341Z,8.60
2022-12-29T13:54:01.688Z,8.50
2022-12-29T13:56:37.369Z,8.40
2022-12-29T13:59:17.413Z,8.40
2022-12-29T14:01:56.326Z,8.40
2022-12-29T14:04:27.450Z,8.30
2022-12-29T14:07:04.876Z,8.30
2022-12-29T14:09:48.136Z,8.30
2022-12-29T14:12:39.588Z,8.20
2022-12-29T14:15:18.191Z,8.20
2022-12-29T14:18:02.531Z,8.20
2022-12-29T14:20:31.985Z,8.10
2022-12-29T14:23:04.270Z,8.10
2022-12-29T14:26:01.795Z,8.10
2022-12-29T14:28:32.971Z,8.10
2022-12-29T14:31:05.498Z,8.10
2022-12-29T14:33:37.093Z,8.00
2022-12-29T14:36:24.468Z,8.00
2022-12-29T14:38:54.192Z,8.00
2022-12-29T14:41:32.166Z,8.00
2022-12-29T14:44:15.237Z,8.00
2022-12-29T14:47:00.512Z,8.00
2022-12-29T14:49:33.913Z,8.00
2022-12-29T14:52:19.687Z,7.90
2022-12-29T14:54:52.328Z,7.90
2022-12-29T14:57:35.366Z,8.00
2022-12-29T15:00:17.024Z,7.90
2022-12-29T15:02:52.269Z,7.90
2022-12-29T15:05:32.961Z,7.90
2022-12-29T15:08:03.399Z,8.00
2022-12-29T15:10:39.689Z,7.90
2022-12-29T15:13:19.289Z,7.90
2022-12-29T15:15:48.931Z,7.90
2022-12-29T15:18:26.500Z,7.90
2022-12-29T15:20:59.527Z,7.90
2022-12-29T15:23:29.815Z,7.90
2022-12-29T15:26:02.606Z,7.90
2022-12-29T15:28:40.423Z,8.00
2022-12-29T15:31:15.876Z,7.90
2022-12-29T15:33:49.382Z,8.00
2022-12-29T15:36:23.195Z,8.00
2022-12-29T15:38:52.972Z,8.00
2022-12-29T15:41:58.526Z,8.10
2022-12-29T15:44:32.338Z,8.10
2022-12-29T15:47:06.676Z,8.10
2022-12-29T15:49:38.921Z,8.10
2022-12-29T15:52:10.523Z,8.20
2022-12-29T15:54:40.656Z,8.20
2022-12-29T15:57:24.635Z,8.10
2022-12-29T15:59:55.216Z,8.10
2022-12-29T16:02:25.127Z,8.20
2022-12-29T16:07:56.406Z,8.30
2022-12-29T16:10:34.801Z,8.30
2022-12-29T16:13:13.547Z,8.30
2022-12-29T16:15:42.946Z,8.30
2022-12-29T16:18:26.358Z,8.20
2022-12-29T16:20:58.292Z,8.30
2022-12-29T16:23:31.262Z,8.30
2022-12-29T16:26:01.062Z,8.30
2022-12-29T16:28:39.116Z,8.30
2022-12-29T16:31:18.967Z,8.30
2022-12-29T16:33:50.995Z,8.40
2022-12-29T16:36:54.746Z,8.40
2022-12-29T16:39:35.594Z,8.50
2022-12-29T16:42:38.699Z,8.40
2022-12-29T16:45:50.856Z,8.50
2022-12-29T16:48:22.496Z,8.70
2022-12-29T16:50:52.994Z,8.80
2022-12-29T16:53:27.084Z,8.90
2022-12-29T16:55:58.241Z,9.10
2022-12-29T16:58:32.789Z,9.20
2022-12-29T17:01:05.697Z,9.20
2022-12-29T17:03:41.186Z,9.30
2022-12-29T17:06:16.649Z,9.30
2022-12-29T17:08:50.799Z,9.20
2022-12-29T17:11:53.899Z,9.10
2022-12-29T17:14:42.916Z,9.00
2022-12-29T17:17:22.356Z,9.00
2022-12-29T17:19:54.330Z,8.90
2022-12-29T17:22:26.793Z,8.80
2022-12-29T17:24:59.040Z,8.70
2022-12-29T17:27:34.395Z,8.60
2022-12-29T17:30:07.627Z,8.50
2022-12-29T17:32:37.418Z,8.40
2022-12-29T17:35:07.109Z,8.40
2022-12-29T17:37:38.542Z,8.30
2022-12-29T17:40:12.975Z,8.30
2022-12-29T17:42:45.743Z,8.30
2022-12-29T17:45:18.723Z,8.20
2022-12-29T17:47:48.491Z,8.20
2022-12-29T17:50:20.784Z,8.20
2022-12-29T17:53:00.181Z,8.10
2022-12-29T17:55:37.559Z,8.10
2022-12-29T17:58:20.237Z,8.00
2022-12-29T18:00:51.140Z,8.00
2022-12-29T18:03:24.965Z,8.10
2022-12-29T18:05:54.710Z,8.00
2022-12-29T18:08:25.071Z,8.00
2022-12-29T18:10:57.058Z,8.00
2022-12-29T18:13:39.300Z,8.10
2022-12-29T18:16:15.945Z,8.10
2022-12-29T18:18:45.532Z,8.10
2022-12-29T18:21:20.388Z,8.00
2022-12-29T18:23:50.363Z,8.10
2022-12-29T18:26:27.287Z,8.00
2022-12-29T18:28:57.769Z,8.00
2022-12-29T18:31:29.330Z,8.00
2022-12-29T18:33:59.724Z,7.90
2022-12-29T18:36:30.731Z,7.90
2022-12-29T18:39:00.129Z,7.90
2022-12-29T18:41:32.022Z,7.90
2022-12-29T18:44:01.570Z,7.80
2022-12-29T18:46:31.723Z,7.80
2022-12-29T18:49:01.252Z,7.80
2022-12-29T18:51:30.976Z,7.80
2022-12-29T18:54:03.245Z,7.70
2022-12-29T18:56:34.513Z,7.80
2022-12-29T18:59:04.185Z,7.80
2022-12-29T19:01:34.480Z,7.90
2022-12-29T19:04:04.360Z,7.90
2022-12-29T19:06:34.172Z,7.90
2022-12-29T19:09:04.017Z,7.90
2022-12-29T19:11:36.469Z,7.90
2022-12-29T19:14:05.862Z,7.90
2022-12-29T19:16:37.967Z,8.00
2022-12-29T19:19:09.856Z,8.00
2022-12-29T19:21:40.088Z,7.90
2022-12-29T19:24:09.618Z,7.90
2022-12-29T19:26:41.971Z,7.80
2022-12-29T19:29:16.924Z,7.80
2022-12-29T19:31:47.138Z,7.80
2022-12-29T19:34:17.453Z,7.80
2022-12-29T19:36:48.415Z,7.80
2022-12-29T19:39:17.718Z,7.80
2022-12-29T19:41:48.830Z,7.90
2022-12-29T19:44:19.695Z,7.80
2022-12-29T19:46:49.934Z,7.80
2022-12-29T19:49:19.355Z,7.80
2022-12-29T19:51:49.031Z,7.90
2022-12-29T19:54:18.431Z,7.90
2022-12-29T19:56:49.835Z,8.00
2022-12-29T19:59:19.728Z,7.90
2022-12-29T20:01:50.101Z,8.00
2022-12-29T20:04:19.554Z,8.00
2022-12-29T20:06:49.509Z,8.00
2022-12-29T20:09:19.282Z,8.00
2022-12-29T20:11:50.420Z,7.90
2022-12-29T20:14:19.720Z,7.90
2022-12-29T20:17:10.103Z,7.90
2022-12-29T20:19:41.171Z,7.90
2022-12-29T20:22:11.646Z,7.80
2022-12-29T20:24:48.247Z,7.80
2022-12-29T20:27:21.096Z,7.80
2022-12-29T20:29:50.586Z,7.70
2022-12-29T20:32:22.515Z,7.70
2022-12-29T20:34:53.087Z,7.60
2022-12-29T20:37:22.856Z,7.60
2022-12-29T20:39:52.176Z,7.60
2022-12-29T20:42:24.080Z,7.50
2022-12-29T20:44:53.383Z,7.50
2022-12-29T20:47:23.105Z,7.60
2022-12-29T20:49:52.468Z,7.60
2022-12-29T20:52:22.159Z,7.60
2022-12-29T20:54:51.495Z,7.60
2022-12-29T20:57:22.977Z,7.70
2022-12-29T20:59:52.337Z,7.80
2022-12-29T21:02:23.222Z,7.80
2022-12-29T21:05:24.105Z,7.80
2022-12-29T21:07:43.144Z,7.80
2022-12-29T21:10:12.945Z,7.90
2022-12-29T21:12:44.217Z,7.90
2022-12-29T21:15:14.688Z,7.90
2022-12-29T21:17:44.516Z,7.90
2022-12-29T21:20:22.231Z,8.00
2022-12-29T21:22:51.923Z,8.00
2022-12-29T21:25:21.201Z,8.10
2022-12-29T21:27:52.408Z,8.10
2022-12-29T21:30:21.723Z,8.20
2022-12-29T21:32:51.432Z,8.20
2022-12-29T21:35:21.025Z,8.30
2022-12-29T21:37:50.699Z,8.30
2022-12-29T21:40:21.297Z,8.40
2022-12-29T21:42:52.231Z,8.30
2022-12-29T21:45:30.711Z,8.40
2022-12-29T21:48:19.079Z,8.40
2022-12-29T21:51:07.932Z,8.40
2022-12-29T21:53:41.978Z,8.50
2022-12-29T21:56:12.712Z,8.60
2022-12-29T21:59:03.602Z,8.60
2022-12-29T22:01:52.265Z,8.60
2022-12-29T22:04:40.869Z,8.70
2022-12-29T22:07:29.992Z,8.80
2022-12-29T22:10:17.010Z,8.80
2022-12-29T22:13:02.096Z,8.90
2022-12-29T22:15:35.376Z,8.90
2022-12-29T22:18:06.709Z,8.80
2022-12-29T22:20:38.163Z,8.90
2022-12-29T22:23:07.513Z,8.90
2022-12-29T22:25:37.288Z,8.90
2022-12-29T22:28:08.013Z,8.90
2022-12-29T22:30:39.334Z,8.90
2022-12-29T22:33:08.490Z,8.90
2022-12-29T22:35:39.089Z,8.90
2022-12-29T22:38:08.351Z,8.90
2022-12-29T22:40:38.373Z,8.90
2022-12-29T22:43:12.886Z,8.90
2022-12-29T22:45:44.425Z,8.90
2022-12-29T22:48:14.637Z,8.90
2022-12-29T22:50:44.812Z,8.80
2022-12-29T22:53:14.277Z,8.80
2022-12-29T22:55:44.060Z,8.80
2022-12-29T22:58:13.744Z,8.80
2022-12-29T23:00:45.724Z,8.70
2022-12-29T23:03:15.237Z,8.70
2022-12-29T23:05:45.361Z,8.70
2022-12-29T23:08:14.819Z,8.70
2022-12-29T23:10:44.520Z,8.80
2022-12-29T23:13:13.828Z,8.70
2022-12-29T23:15:45.282Z,8.80
2022-12-29T23:18:14.875Z,8.70
2022-12-29T23:20:44.723Z,8.60
2022-12-29T23:23:14.148Z,8.60
2022-12-29T23:25:44.577Z,8.60
2022-12-29T23:28:14.369Z,8.50
2022-12-29T23:30:46.072Z,8.50
2022-12-29T23:33:15.001Z,8.40
2022-12-29T23:35:44.964Z,8.40
2022-12-29T23:38:14.410Z,8.30
2022-12-29T23:40:44.070Z,8.30
2022-12-29T23:43:13.462Z,8.20
2022-12-29T23:45:50.512Z,8.20
2022-12-29T23:48:20.825Z,8.10
2022-12-29T23:50:51.250Z,8.10
2022-12-29T23:53:20.561Z,8.00
2022-12-29T23:55:55.067Z,8.00
2022-12-29T23:58:24.859Z,7.90
